Latest Weather Observations for Barrow Island

IDW60801

Issued at 6:34 pm WST Thursday 19 January 2017 (issued every 30 minutes, with the page automatically refreshed every 10 minutes)

About weather observations | Map of weather stations | Latest weather observations for WA | Other Formats
Station Details ID: 005094 Name: BARROW ISLAND AIRPORT Lat: -20.87 Lon: 115.41 Height: 6.4 m
Data from the previous 72 hours. | See also: Recent months at Barrow Island
Date/Time
WST
Temp
°C
App
Temp
°C
Dew
Point
°C
Rel
Hum
%
Delta-T
°C
Wind Press
QNH
hPa
Press
MSL
hPa
Rain since
9am
mm
Dir  Spd
km/h
Gust
km/h
Spd
kts
Gust
kts
19/06:30pm 26.3 22.0 20.4 70 3.9 WSW 43 57 23 31 1004.4 - 0.0
19/06:00pm 27.2 22.3 20.3 66 4.5 W 46 57 25 31 1004.1 1004.1 0.0
19/05:30pm 27.6 23.0 19.7 62 5.1 W 43 56 23 30 1004.1 - 0.0
19/05:00pm 28.1 24.1 20.1 62 5.2 W 41 50 22 27 1004.0 - 0.0
19/04:30pm 28.1 23.6 19.9 61 5.4 W 43 54 23 29 1004.1 - 0.0
19/04:00pm 27.8 23.2 19.6 61 5.3 WSW 43 54 23 29 1004.5 - 0.0
19/03:30pm 28.2 23.3 19.1 57 5.9 WSW 43 50 23 27 1004.8 - 0.0
19/03:00pm 29.2 24.1 18.6 52 6.8 WSW 43 52 23 28 1005.2 1005.2 0.0
19/02:30pm 28.3 23.5 18.4 55 6.3 WSW 41 50 22 27 1005.7 - 0.0
19/02:00pm 28.1 23.7 18.5 56 6.1 SW 39 52 21 28 1005.9 - 0.0
19/01:30pm 27.8 23.6 18.8 58 5.8 WSW 39 48 21 26 1006.3 - 0.0
19/01:00pm 27.5 23.3 19.0 59 5.5 SW 39 48 21 26 1006.6 - 0.0
19/12:30pm 27.9 23.9 19.4 60 5.5 SW 39 50 21 27 1007.1 - 0.0
19/12:00pm 26.8 22.2 18.9 62 5.1 SW 41 50 22 27 1007.4 1007.4 0.0
19/11:30am 26.7 21.0 17.7 57 5.7 SW 44 56 24 30 1007.7 - 0.0
19/11:00am 26.6 21.3 18.5 61 5.2 SW 44 54 24 29 1007.7 - 0.0
19/10:30am 26.3 21.5 18.4 61 5.0 SW 41 52 22 28 1008.3 - 0.0
19/10:00am 25.7 20.9 18.4 64 4.6 SW 41 50 22 27 1008.5 - 0.0
19/09:30am 25.5 20.9 18.9 67 4.2 SSW 41 46 22 25 1008.7 - 0.0
19/09:00am 25.3 21.9 19.0 68 4.0 SSW 35 44 19 24 1008.9 1008.9 0.0
19/08:30am 24.2 19.6 17.9 68 3.9 SSW 39 46 21 25 1009.0 - 0.0
19/08:00am 24.2 19.5 18.6 71 3.5 SSW 41 48 22 26 1008.8 - 0.0
19/07:30am 24.1 18.6 18.1 69 3.8 SW 44 52 24 28 1008.4 - 0.0
19/07:00am 23.8 18.2 18.7 73 3.2 SSW 46 54 25 29 1008.1 - 0.0
19/06:30am 23.6 17.9 18.5 73 3.2 SW 46 52 25 28 1007.7 - 0.0
19/06:00am 23.9 18.5 19.2 75 3.0 SSW 46 56 25 30 1007.2 1007.2 0.0
19/05:30am 23.9 18.3 18.8 73 3.2 SW 46 56 25 30 1006.9 - 0.0
19/05:00am 23.9 18.4 19.0 74 3.1 SW 46 54 25 29 1006.8 - 0.0
19/04:30am 24.1 18.4 19.4 75 3.0 SW 48 56 26 30 1006.4 - 0.0
19/04:00am 24.2 18.4 19.1 73 3.3 SW 48 59 26 32 1006.2 - 0.0
19/03:30am 24.3 18.6 19.4 74 3.1 SW 48 57 26 31 1006.2 - 0.0
19/03:00am 24.3 19.2 19.8 76 2.9 SW 46 57 25 31 1006.3 1006.3 0.0
19/02:30am 24.5 19.1 20.0 76 2.9 SW 48 57 26 31 1006.4 - 0.0
19/02:00am 24.8 19.8 20.1 75 3.0 SW 46 57 25 31 1006.5 - 0.0
19/01:30am 25.1 20.9 21.0 78 2.7 SW 44 52 24 28 1007.0 - 0.0
19/01:00am 25.1 21.2 21.2 79 2.6 SW 43 54 23 29 1007.1 - 0.0
19/12:30am 25.0 21.1 21.1 79 2.6 SW 43 50 23 27 1007.4 - 0.0
19/12:00am 24.9 20.8 20.8 78 2.7 SW 43 50 23 27 1007.6 1007.6 0.0
 
Date/Time
WST
Temp
°C
App
Temp
°C
Dew
Point
°C
Rel
Hum
%
Delta-T
°C
Wind Press
QNH
hPa
Press
MSL
hPa
Rain since
9am
mm
Dir  Spd
km/h
Gust
km/h
Spd
kts
Gust
kts
18/11:30pm 25.1 20.8 20.4 75 3.1 SW 43 54 23 29 1007.9 - 0.0
18/11:00pm 25.1 20.5 20.1 74 3.2 SW 44 52 24 28 1007.6 - 0.0
18/10:30pm 25.4 21.5 20.4 74 3.3 WSW 41 54 22 29 1007.8 - 0.0
18/10:00pm 25.5 21.9 21.0 76 3.0 WSW 41 50 22 27 1007.9 - 0.0
18/09:30pm 25.4 22.0 20.6 75 3.1 WSW 39 50 21 27 1007.9 - 0.0
18/09:00pm 25.4 22.5 20.9 76 3.0 WSW 37 46 20 25 1007.7 1007.7 0.0
18/08:30pm 25.5 21.4 20.7 75 3.1 WSW 43 50 23 27 1007.4 - 0.0
18/08:00pm 25.5 21.1 20.5 74 3.3 WSW 44 52 24 28 1007.3 - 0.0
18/07:30pm 25.7 21.5 20.9 75 3.2 WSW 44 54 24 29 1006.9 - 0.0
18/07:00pm 25.9 21.7 20.5 72 3.5 WSW 43 56 23 30 1006.5 - 0.0
18/06:30pm 26.3 21.6 20.6 71 3.7 WSW 46 56 25 30 1006.0 - 0.0
18/06:00pm 26.8 22.0 21.3 72 3.7 WSW 48 56 26 30 1005.6 1005.6 0.0
18/05:30pm 27.5 23.1 21.3 69 4.1 W 46 57 25 31 1005.3 - 0.0
18/05:00pm 28.7 25.0 21.5 65 4.8 WSW 43 54 23 29 1004.9 - 0.0
18/04:30pm 28.0 24.1 21.5 67 4.3 W 44 54 24 29 1005.1 - 0.0
18/04:00pm 28.6 24.7 21.1 64 5.0 W 43 52 23 28 1005.2 - 0.0
18/03:30pm 29.3 25.7 21.0 61 5.5 W 41 50 22 27 1005.5 - 0.0
18/03:00pm 29.3 26.1 21.8 64 5.1 WSW 41 52 22 28 1005.7 1005.7 0.0
18/02:30pm 29.2 26.2 21.4 63 5.2 WSW 39 48 21 26 1006.0 - 0.0
18/02:00pm 29.2 26.7 21.7 64 5.0 WSW 37 46 20 25 1006.5 - 0.0
18/01:30pm 29.0 26.7 21.2 62 5.2 WSW 35 48 19 26 1006.8 - 0.0
18/01:00pm 28.8 26.4 21.0 62 5.2 WSW 35 43 19 23 1006.9 - 0.0
18/12:30pm 28.9 27.4 20.9 62 5.3 WSW 30 35 16 19 1007.1 - 0.0
18/12:00pm 29.0 28.0 22.0 66 4.7 WSW 30 37 16 20 1007.1 1007.1 0.0
18/11:30am 28.5 27.0 21.8 67 4.5 WSW 32 44 17 24 1007.3 - 0.0
18/11:00am 27.9 26.3 21.9 70 4.0 WSW 33 43 18 23 1007.7 - 0.0
18/10:30am 28.1 26.2 21.4 67 4.5 WSW 33 41 18 22 1008.0 - 0.0
18/10:00am 27.5 25.3 21.5 70 4.0 SW 35 43 19 23 1008.0 - 0.0
18/09:30am 27.7 25.5 21.5 69 4.1 WSW 35 41 19 22 1008.0 - 0.0
18/09:00am 27.1 25.3 21.6 72 3.7 SW 33 44 18 24 1007.7 1007.7 0.0
18/08:30am 27.0 25.5 21.7 73 3.5 SW 32 39 17 21 1007.6 - 0.0
18/08:00am 26.5 25.4 21.7 75 3.2 SW 30 39 16 21 1007.6 - 0.0
18/07:30am 25.9 24.4 20.9 74 3.3 SW 30 35 16 19 1007.6 - 0.0
18/07:00am 25.8 23.9 21.0 75 3.2 SW 32 37 17 20 1007.5 - 0.0
18/06:30am 25.3 24.3 21.2 78 2.7 WSW 28 33 15 18 1007.1 - 0.0
18/06:00am 25.2 24.1 21.1 78 2.7 WSW 28 32 15 17 1006.9 1006.9 0.0
18/05:30am 25.4 24.7 21.1 77 2.8 WSW 26 33 14 18 1006.7 - 0.0
18/05:00am 25.7 24.7 20.5 73 3.4 WSW 26 32 14 17 1006.5 - 0.0
18/04:30am 25.8 25.0 20.8 74 3.3 WSW 26 33 14 18 1006.4 - 0.0
18/04:00am 26.2 25.6 21.2 74 3.3 WSW 26 32 14 17 1006.4 - 0.0
18/03:30am 25.9 26.3 21.8 78 2.7 WSW 22 30 12 16 1006.2 - 0.0
18/03:00am 25.9 26.6 22.2 80 2.5 WSW 22 28 12 15 1006.1 1006.1 0.0
18/02:30am 26.0 27.1 22.3 80 2.5 WSW 20 26 11 14 1006.1 - 0.0
18/02:00am 26.1 27.1 22.8 82 2.2 WSW 22 28 12 15 1006.3 - 0.0
18/01:30am 25.9 26.7 22.4 81 2.4 W 22 28 12 15 1006.6 - 0.0
18/01:00am 25.9 26.6 22.2 80 2.5 W 22 28 12 15 1006.7 - 0.0
18/12:30am 25.9 26.2 22.2 80 2.5 W 24 30 13 16 1006.9 - 0.0
18/12:00am 25.9 25.8 22.2 80 2.5 W 26 32 14 17 1007.0 1007.0 0.0
 
Date/Time
WST
Temp
°C
App
Temp
°C
Dew
Point
°C
Rel
Hum
%
Delta-T
°C
Wind Press
QNH
hPa
Press
MSL
hPa
Rain since
9am
mm
Dir  Spd
km/h
Gust
km/h
Spd
kts
Gust
kts
17/11:30pm 25.9 26.2 22.2 80 2.5 W 24 30 13 16 1007.4 - 0.0
17/11:00pm 26.0 26.6 22.1 79 2.6 W 22 30 12 16 1007.6 - 0.0
17/10:30pm 26.2 26.4 22.1 78 2.7 W 24 30 13 16 1007.6 - 0.0
17/10:00pm 26.3 26.4 21.9 77 2.9 W 24 32 13 17 1007.5 - 0.0
17/09:30pm 26.4 26.6 22.0 77 2.9 W 24 30 13 16 1007.3 - 0.0
17/09:00pm 26.4 26.1 21.8 76 3.1 W 26 32 14 17 1007.0 1007.0 0.0
17/08:30pm 26.6 26.8 22.0 76 3.1 W 24 32 13 17 1006.7 - 0.0
17/08:00pm 26.7 26.5 22.1 76 3.1 W 26 32 14 17 1006.4 - 0.0
17/07:30pm 26.7 26.4 21.9 75 3.2 W 26 33 14 18 1005.8 - 0.0
17/07:00pm 26.8 26.3 21.5 72 3.5 W 26 33 14 18 1005.4 - 0.0
17/06:30pm 27.6 27.7 21.9 71 3.8 W 24 32 13 17 1005.2 - 0.0
17/06:00pm 28.1 27.6 21.4 67 4.5 W 26 33 14 18 1005.0 1005.0 0.0
17/05:30pm 29.3 29.2 21.5 63 5.2 WNW 24 32 13 17 1004.7 - 0.0
17/05:00pm 30.3 30.2 21.4 59 6.0 W 24 30 13 16 1004.5 - 0.0
17/04:30pm 30.4 29.7 21.8 60 5.8 W 28 35 15 19 1004.4 - 0.0
17/04:00pm 30.3 29.7 21.9 60 5.7 W 28 35 15 19 1004.4 - 0.0
17/03:30pm 29.8 29.0 21.7 61 5.5 WSW 28 35 15 19 1004.7 - 0.0
17/03:00pm 29.9 29.4 22.1 63 5.3 WSW 28 37 15 20 1004.9 1004.9 0.0
17/02:30pm 30.0 29.5 22.2 63 5.3 WSW 28 33 15 18 1005.1 - 0.0
17/02:00pm 30.4 30.5 22.6 63 5.3 WSW 26 37 14 20 1005.3 - 0.0
17/01:30pm 30.1 29.7 21.7 60 5.7 WSW 26 35 14 19 1005.5 - 0.0
17/01:00pm 30.7 31.3 22.8 62 5.4 WSW 24 33 13 18 1005.6 - 0.0
17/12:30pm 31.6 32.9 23.4 61 5.7 WSW 22 32 12 17 1005.8 - 0.0
17/12:00pm 30.2 30.6 22.4 63 5.3 WSW 24 32 13 17 1005.9 1005.9 0.0
17/11:30am 30.8 31.3 22.7 62 5.5 WSW 24 32 13 17 1006.1 - 0.0
17/11:00am 29.8 30.4 22.8 66 4.8 WSW 24 32 13 17 1006.3 - 0.0
17/10:30am 29.6 30.6 22.8 67 4.6 WSW 22 30 12 16 1006.5 - 0.0
17/10:00am 29.1 29.9 21.8 64 4.9 WSW 20 32 11 17 1006.7 - 0.0
17/09:30am 29.0 30.2 22.5 68 4.4 W 20 26 11 14 1006.6 - 0.0
17/09:00am 29.3 30.9 22.8 68 4.4 WSW 19 24 10 13 1006.6 1006.6 0.0
17/08:30am 28.5 29.9 22.5 70 4.1 WSW 19 24 10 13 1006.6 - 0.0
17/08:00am 28.0 30.3 22.7 73 3.6 WSW 15 20 8 11 1006.5 - 0.0
17/07:30am 27.7 29.1 22.6 74 3.5 WSW 19 22 10 12 1006.6 - 0.0
17/07:00am 27.1 29.1 22.9 78 2.9 WSW 17 20 9 11 1006.7 - 0.0
17/06:30am 26.3 28.6 22.8 81 2.4 W 15 19 8 10 1006.6 - 0.0
17/06:00am 25.9 27.7 22.6 82 2.2 W 17 20 9 11 1006.0 1006.0 0.0
17/05:30am 26.1 28.4 22.8 82 2.2 W 15 19 8 10 1005.7 - 0.0
17/05:00am 26.2 28.6 22.9 82 2.2 WSW 15 17 8 9 1005.4 - 0.0
17/04:30am 26.4 28.5 23.1 82 2.2 WSW 17 20 9 11 1005.3 - 0.0
17/04:00am 26.4 29.4 23.3 83 2.1 WSW 13 17 7 9 1005.1 - 0.0
17/03:30am 25.7 28.9 22.4 82 2.2 W 9 11 5 6 1005.0 - 0.0
17/03:00am 26.1 29.1 22.6 81 2.4 WSW 11 13 6 7 1004.9 1004.9 0.0
17/02:30am 25.7 28.9 22.4 82 2.2 WNW 9 11 5 6 1005.2 - 0.0
17/02:00am 26.1 29.1 22.6 81 2.4 WNW 11 15 6 8 1005.1 - 0.0
17/01:30am 26.1 29.3 22.4 80 2.5 W 9 11 5 6 1005.4 - 0.0
17/01:00am 26.3 28.8 22.4 79 2.6 WSW 13 19 7 10 1005.4 - 0.0
17/12:30am 26.6 28.6 22.2 77 3.0 WSW 15 17 8 9 1005.8 - 0.0
17/12:00am 26.4 28.6 21.8 76 3.1 W 13 17 7 9 1006.2 1006.2 0.0
 
Date/Time
WST
Temp
°C
App
Temp
°C
Dew
Point
°C
Rel
Hum
%
Delta-T
°C
Wind Press
QNH
hPa
Press
MSL
hPa
Rain since
9am
mm
Dir  Spd
km/h
Gust
km/h
Spd
kts
Gust
kts
16/11:30pm 26.6 28.1 22.0 76 3.1 WSW 17 20 9 11 1006.5 - 0.0
16/11:00pm 26.6 28.1 22.0 76 3.1 W 17 19 9 10 1007.0 - 0.0
16/10:30pm 26.4 27.6 21.4 74 3.3 W 17 22 9 12 1007.0 - 0.0
16/10:00pm 26.1 26.9 20.7 72 3.5 W 17 19 9 10 1006.9 - 0.0
16/09:30pm 26.0 26.6 20.3 71 3.7 W 17 20 9 11 1006.6 - 0.0
16/09:00pm 26.1 27.2 20.4 71 3.7 W 15 19 8 10 1006.3 1006.3 0.0
16/08:30pm 26.2 26.0 20.5 71 3.7 W 22 28 12 15 1005.7 - 0.0
16/08:00pm 26.4 25.8 20.5 70 3.9 WNW 24 30 13 16 1005.3 - 0.0
16/07:30pm 26.6 26.0 20.4 69 4.1 WNW 24 30 13 16 1005.0 - 0.0
16/07:00pm 27.0 26.1 20.6 68 4.2 W 26 32 14 17 1004.6 - 0.0

Other Formats:

Comma delimited format used in spreadsheet applications
http://www.bom.gov.au/fwo/IDW60801/IDW60801.95304.axf

JavaScript Object Notation format (JSON) in row-major order
http://www.bom.gov.au/fwo/IDW60801/IDW60801.95304.json